sensor_id;sensor_type;location;lat;lon;timestamp;P1;durP1;ratioP1;P2;durP2;ratioP2
4096;SDS011;2062;50.694;7.246;2022-11-20T00:00:18;7.28;;;3.58;;
4096;SDS011;2062;50.694;7.246;2022-11-20T00:02:45;7.87;;;3.00;;
4096;SDS011;2062;50.694;7.246;2022-11-20T00:05:13;7.28;;;3.08;;
4096;SDS011;2062;50.694;7.246;2022-11-20T00:07:40;6.93;;;3.20;;
4096;SDS011;2062;50.694;7.246;2022-11-20T00:10:07;7.18;;;2.97;;
4096;SDS011;2062;50.694;7.246;2022-11-20T00:12:34;6.28;;;3.17;;
4096;SDS011;2062;50.694;7.246;2022-11-20T00:15:01;7.73;;;3.07;;
4096;SDS011;2062;50.694;7.246;2022-11-20T00:17:28;6.32;;;3.15;;
4096;SDS011;2062;50.694;7.246;2022-11-20T00:19:54;6.50;;;3.17;;
4096;SDS011;2062;50.694;7.246;2022-11-20T00:22:22;6.95;;;3.03;;
4096;SDS011;2062;50.694;7.246;2022-11-20T00:24:49;7.22;;;3.30;;
4096;SDS011;2062;50.694;7.246;2022-11-20T00:27:16;7.00;;;3.10;;
4096;SDS011;2062;50.694;7.246;2022-11-20T00:29:43;7.93;;;3.35;;
4096;SDS011;2062;50.694;7.246;2022-11-20T00:32:09;6.13;;;2.90;;
4096;SDS011;2062;50.694;7.246;2022-11-20T00:34:36;6.03;;;3.08;;
4096;SDS011;2062;50.694;7.246;2022-11-20T00:37:03;5.68;;;2.88;;
4096;SDS011;2062;50.694;7.246;2022-11-20T00:39:31;6.07;;;2.97;;
4096;SDS011;2062;50.694;7.246;2022-11-20T00:41:57;5.80;;;3.00;;
4096;SDS011;2062;50.694;7.246;2022-11-20T00:44:24;5.45;;;2.90;;
4096;SDS011;2062;50.694;7.246;2022-11-20T00:46:51;6.35;;;3.00;;
4096;SDS011;2062;50.694;7.246;2022-11-20T00:49:18;5.82;;;2.90;;
4096;SDS011;2062;50.694;7.246;2022-11-20T00:51:44;5.83;;;2.73;;
4096;SDS011;2062;50.694;7.246;2022-11-20T00:54:11;5.93;;;3.10;;
4096;SDS011;2062;50.694;7.246;2022-11-20T00:56:39;5.88;;;2.88;;
4096;SDS011;2062;50.694;7.246;2022-11-20T00:59:08;6.00;;;3.10;;
4096;SDS011;2062;50.694;7.246;2022-11-20T01:01:36;5.35;;;2.90;;
4096;SDS011;2062;50.694;7.246;2022-11-20T01:04:03;5.97;;;2.90;;
4096;SDS011;2062;50.694;7.246;2022-11-20T01:06:30;5.45;;;2.90;;
4096;SDS011;2062;50.694;7.246;2022-11-20T01:09:00;6.25;;;3.25;;
4096;SDS011;2062;50.694;7.246;2022-11-20T01:11:29;7.20;;;3.20;;
4096;SDS011;2062;50.694;7.246;2022-11-20T01:13:59;5.80;;;2.97;;
4096;SDS011;2062;50.694;7.246;2022-11-20T01:16:27;5.70;;;3.00;;
4096;SDS011;2062;50.694;7.246;2022-11-20T01:18:56;5.75;;;2.90;;
4096;SDS011;2062;50.694;7.246;2022-11-20T01:21:25;5.35;;;2.80;;
4096;SDS011;2062;50.694;7.246;2022-11-20T01:23:53;6.28;;;3.13;;
4096;SDS011;2062;50.694;7.246;2022-11-20T01:26:21;5.30;;;2.83;;
4096;SDS011;2062;50.694;7.246;2022-11-20T01:28:49;7.27;;;3.00;;
4096;SDS011;2062;50.694;7.246;2022-11-20T01:31:19;5.60;;;2.90;;
4096;SDS011;2062;50.694;7.246;2022-11-20T01:33:48;6.13;;;2.90;;
4096;SDS011;2062;50.694;7.246;2022-11-20T01:36:16;5.60;;;2.70;;
4096;SDS011;2062;50.694;7.246;2022-11-20T01:38:44;5.70;;;2.85;;
4096;SDS011;2062;50.694;7.246;2022-11-20T01:41:12;5.40;;;2.70;;
4096;SDS011;2062;50.694;7.246;2022-11-20T01:44:00;5.22;;;2.95;;
4096;SDS011;2062;50.694;7.246;2022-11-20T01:46:29;4.97;;;2.30;;
4096;SDS011;2062;50.694;7.246;2022-11-20T01:48:58;5.57;;;2.80;;
4096;SDS011;2062;50.694;7.246;2022-11-20T01:51:29;5.18;;;2.85;;
4096;SDS011;2062;50.694;7.246;2022-11-20T01:54:00;6.33;;;2.67;;
4096;SDS011;2062;50.694;7.246;2022-11-20T01:56:31;5.00;;;2.80;;
4096;SDS011;2062;50.694;7.246;2022-11-20T01:59:03;5.55;;;2.75;;
4096;SDS011;2062;50.694;7.246;2022-11-20T02:01:33;6.05;;;2.90;;
4096;SDS011;2062;50.694;7.246;2022-11-20T02:04:00;5.72;;;3.00;;
4096;SDS011;2062;50.694;7.246;2022-11-20T02:06:28;6.50;;;2.70;;
4096;SDS011;2062;50.694;7.246;2022-11-20T02:08:58;5.10;;;2.75;;
4096;SDS011;2062;50.694;7.246;2022-11-20T02:11:25;5.60;;;2.80;;
4096;SDS011;2062;50.694;7.246;2022-11-20T02:13:52;5.15;;;2.70;;
4096;SDS011;2062;50.694;7.246;2022-11-20T02:16:20;5.22;;;2.67;;
4096;SDS011;2062;50.694;7.246;2022-11-20T02:18:50;6.70;;;2.77;;
4096;SDS011;2062;50.694;7.246;2022-11-20T02:21:25;5.65;;;2.90;;
4096;SDS011;2062;50.694;7.246;2022-11-20T02:24:07;5.03;;;2.45;;
4096;SDS011;2062;50.694;7.246;2022-11-20T02:26:39;6.40;;;2.72;;
4096;SDS011;2062;50.694;7.246;2022-11-20T02:29:10;5.25;;;2.80;;
4096;SDS011;2062;50.694;7.246;2022-11-20T02:31:37;4.97;;;2.70;;
4096;SDS011;2062;50.694;7.246;2022-11-20T02:34:06;5.43;;;2.67;;
4096;SDS011;2062;50.694;7.246;2022-11-20T02:36:33;4.97;;;2.65;;
4096;SDS011;2062;50.694;7.246;2022-11-20T02:39:01;4.70;;;2.33;;
4096;SDS011;2062;50.694;7.246;2022-11-20T02:41:36;5.45;;;2.65;;
4096;SDS011;2062;50.694;7.246;2022-11-20T02:44:04;6.47;;;2.43;;
4096;SDS011;2062;50.694;7.246;2022-11-20T02:46:31;5.65;;;2.70;;
4096;SDS011;2062;50.694;7.246;2022-11-20T02:48:58;5.20;;;2.50;;
4096;SDS011;2062;50.694;7.246;2022-11-20T02:51:25;5.50;;;2.63;;
4096;SDS011;2062;50.694;7.246;2022-11-20T02:53:51;5.63;;;2.65;;
4096;SDS011;2062;50.694;7.246;2022-11-20T02:56:19;5.10;;;2.40;;
4096;SDS011;2062;50.694;7.246;2022-11-20T02:58:47;5.00;;;2.40;;
4096;SDS011;2062;50.694;7.246;2022-11-20T03:01:14;5.72;;;2.90;;
4096;SDS011;2062;50.694;7.246;2022-11-20T03:03:40;5.28;;;2.55;;
4096;SDS011;2062;50.694;7.246;2022-11-20T03:06:07;5.70;;;2.90;;
4096;SDS011;2062;50.694;7.246;2022-11-20T03:08:41;5.43;;;2.80;;
4096;SDS011;2062;50.694;7.246;2022-11-20T03:11:08;5.07;;;2.45;;
4096;SDS011;2062;50.694;7.246;2022-11-20T03:13:35;4.90;;;2.50;;
4096;SDS011;2062;50.694;7.246;2022-11-20T03:16:07;5.47;;;2.67;;
4096;SDS011;2062;50.694;7.246;2022-11-20T03:18:35;5.20;;;2.80;;
4096;SDS011;2062;50.694;7.246;2022-11-20T03:21:02;5.47;;;2.67;;
4096;SDS011;2062;50.694;7.246;2022-11-20T03:23:29;5.35;;;2.63;;
4096;SDS011;2062;50.694;7.246;2022-11-20T03:26:06;6.25;;;2.50;;
4096;SDS011;2062;50.694;7.246;2022-11-20T03:28:37;4.95;;;2.70;;
4096;SDS011;2062;50.694;7.246;2022-11-20T03:31:06;5.70;;;2.60;;
4096;SDS011;2062;50.694;7.246;2022-11-20T03:33:34;5.77;;;2.90;;
4096;SDS011;2062;50.694;7.246;2022-11-20T03:36:01;5.40;;;2.80;;
4096;SDS011;2062;50.694;7.246;2022-11-20T03:38:29;5.53;;;2.88;;
4096;SDS011;2062;50.694;7.246;2022-11-20T03:40:58;5.07;;;2.65;;
4096;SDS011;2062;50.694;7.246;2022-11-20T03:43:25;5.38;;;2.30;;
4096;SDS011;2062;50.694;7.246;2022-11-20T03:45:52;5.20;;;2.50;;
4096;SDS011;2062;50.694;7.246;2022-11-20T03:48:21;4.93;;;2.33;;
4096;SDS011;2062;50.694;7.246;2022-11-20T03:50:47;5.18;;;2.70;;
4096;SDS011;2062;50.694;7.246;2022-11-20T03:53:14;5.28;;;2.58;;
4096;SDS011;2062;50.694;7.246;2022-11-20T03:55:42;5.50;;;2.60;;
4096;SDS011;2062;50.694;7.246;2022-11-20T03:58:08;4.63;;;2.33;;
4096;SDS011;2062;50.694;7.246;2022-11-20T04:00:35;5.45;;;2.53;;
4096;SDS011;2062;50.694;7.246;2022-11-20T04:03:02;4.95;;;2.60;;
4096;SDS011;2062;50.694;7.246;2022-11-20T04:05:30;4.82;;;2.40;;
4096;SDS011;2062;50.694;7.246;2022-11-20T04:07:59;5.30;;;2.65;;
4096;SDS011;2062;50.694;7.246;2022-11-20T04:10:26;6.10;;;2.97;;
4096;SDS011;2062;50.694;7.246;2022-11-20T04:12:53;5.40;;;2.42;;
4096;SDS011;2062;50.694;7.246;2022-11-20T04:15:19;5.90;;;2.85;;
4096;SDS011;2062;50.694;7.246;2022-11-20T04:17:46;5.43;;;2.65;;
4096;SDS011;2062;50.694;7.246;2022-11-20T04:20:13;5.07;;;2.45;;
4096;SDS011;2062;50.694;7.246;2022-11-20T04:22:41;5.07;;;2.87;;
4096;SDS011;2062;50.694;7.246;2022-11-20T04:25:08;6.05;;;2.50;;
4096;SDS011;2062;50.694;7.246;2022-11-20T04:27:35;5.38;;;2.50;;
4096;SDS011;2062;50.694;7.246;2022-11-20T04:30:02;5.22;;;2.70;;
4096;SDS011;2062;50.694;7.246;2022-11-20T04:32:29;5.75;;;2.65;;
4096;SDS011;2062;50.694;7.246;2022-11-20T04:34:56;5.37;;;2.57;;
4096;SDS011;2062;50.694;7.246;2022-11-20T04:37:23;4.63;;;2.40;;
4096;SDS011;2062;50.694;7.246;2022-11-20T04:39:51;5.07;;;2.72;;
4096;SDS011;2062;50.694;7.246;2022-11-20T04:42:17;5.15;;;2.50;;
4096;SDS011;2062;50.694;7.246;2022-11-20T04:44:56;5.07;;;2.75;;
4096;SDS011;2062;50.694;7.246;2022-11-20T04:47:23;5.23;;;2.77;;
4096;SDS011;2062;50.694;7.246;2022-11-20T04:49:50;4.70;;;2.45;;
4096;SDS011;2062;50.694;7.246;2022-11-20T04:52:17;5.18;;;2.40;;
4096;SDS011;2062;50.694;7.246;2022-11-20T04:54:44;5.20;;;2.75;;
4096;SDS011;2062;50.694;7.246;2022-11-20T04:57:13;5.00;;;2.50;;
4096;SDS011;2062;50.694;7.246;2022-11-20T04:59:41;5.20;;;2.50;;
4096;SDS011;2062;50.694;7.246;2022-11-20T05:02:07;5.15;;;2.42;;
4096;SDS011;2062;50.694;7.246;2022-11-20T05:04:35;5.22;;;2.63;;
4096;SDS011;2062;50.694;7.246;2022-11-20T05:07:02;5.10;;;2.53;;
4096;SDS011;2062;50.694;7.246;2022-11-20T05:09:29;5.85;;;2.42;;
4096;SDS011;2062;50.694;7.246;2022-11-20T05:11:56;4.40;;;2.10;;
4096;SDS011;2062;50.694;7.246;2022-11-20T05:14:24;5.93;;;2.80;;
4096;SDS011;2062;50.694;7.246;2022-11-20T05:16:51;4.82;;;2.40;;
4096;SDS011;2062;50.694;7.246;2022-11-20T05:19:18;5.07;;;2.50;;
4096;SDS011;2062;50.694;7.246;2022-11-20T05:21:44;4.18;;;2.30;;
4096;SDS011;2062;50.694;7.246;2022-11-20T05:24:11;5.17;;;2.37;;
4096;SDS011;2062;50.694;7.246;2022-11-20T05:26:38;5.20;;;2.50;;
4096;SDS011;2062;50.694;7.246;2022-11-20T05:29:05;4.70;;;2.30;;
4096;SDS011;2062;50.694;7.246;2022-11-20T05:31:33;5.10;;;2.70;;
4096;SDS011;2062;50.694;7.246;2022-11-20T05:34:01;5.10;;;2.45;;
4096;SDS011;2062;50.694;7.246;2022-11-20T05:36:27;5.50;;;2.60;;
4096;SDS011;2062;50.694;7.246;2022-11-20T05:38:55;5.05;;;2.38;;
4096;SDS011;2062;50.694;7.246;2022-11-20T05:41:22;5.40;;;2.50;;
4096;SDS011;2062;50.694;7.246;2022-11-20T05:43:49;4.90;;;2.53;;
4096;SDS011;2062;50.694;7.246;2022-11-20T05:46:18;5.00;;;2.75;;
4096;SDS011;2062;50.694;7.246;2022-11-20T05:48:47;4.47;;;2.13;;
4096;SDS011;2062;50.694;7.246;2022-11-20T05:51:14;5.32;;;2.60;;
4096;SDS011;2062;50.694;7.246;2022-11-20T05:53:43;5.65;;;2.45;;
4096;SDS011;2062;50.694;7.246;2022-11-20T05:56:11;5.18;;;2.47;;
4096;SDS011;2062;50.694;7.246;2022-11-20T05:58:38;5.03;;;2.60;;
4096;SDS011;2062;50.694;7.246;2022-11-20T06:01:07;5.10;;;2.43;;
4096;SDS011;2062;50.694;7.246;2022-11-20T06:03:35;4.53;;;2.35;;
4096;SDS011;2062;50.694;7.246;2022-11-20T06:06:04;5.25;;;2.55;;
4096;SDS011;2062;50.694;7.246;2022-11-20T06:08:32;5.35;;;2.58;;
4096;SDS011;2062;50.694;7.246;2022-11-20T06:11:02;5.32;;;2.50;;
4096;SDS011;2062;50.694;7.246;2022-11-20T06:13:30;5.50;;;2.60;;
4096;SDS011;2062;50.694;7.246;2022-11-20T06:15:56;5.10;;;2.60;;
4096;SDS011;2062;50.694;7.246;2022-11-20T06:18:25;4.80;;;2.40;;
4096;SDS011;2062;50.694;7.246;2022-11-20T06:20:58;4.90;;;2.60;;
4096;SDS011;2062;50.694;7.246;2022-11-20T06:23:28;5.30;;;2.53;;
4096;SDS011;2062;50.694;7.246;2022-11-20T06:25:55;5.37;;;2.33;;
4096;SDS011;2062;50.694;7.246;2022-11-20T06:28:22;5.13;;;2.50;;
4096;SDS011;2062;50.694;7.246;2022-11-20T06:30:49;4.68;;;2.50;;
4096;SDS011;2062;50.694;7.246;2022-11-20T06:33:16;4.80;;;2.50;;
4096;SDS011;2062;50.694;7.246;2022-11-20T06:35:42;4.97;;;2.50;;
4096;SDS011;2062;50.694;7.246;2022-11-20T06:38:09;4.63;;;2.40;;
4096;SDS011;2062;50.694;7.246;2022-11-20T06:40:38;5.43;;;2.47;;
4096;SDS011;2062;50.694;7.246;2022-11-20T06:43:06;4.72;;;2.53;;
4096;SDS011;2062;50.694;7.246;2022-11-20T06:45:33;5.57;;;2.60;;
4096;SDS011;2062;50.694;7.246;2022-11-20T06:48:00;5.20;;;2.63;;
4096;SDS011;2062;50.694;7.246;2022-11-20T06:50:26;5.43;;;2.60;;
4096;SDS011;2062;50.694;7.246;2022-11-20T06:52:53;5.35;;;2.75;;
4096;SDS011;2062;50.694;7.246;2022-11-20T06:55:20;5.68;;;2.70;;
4096;SDS011;2062;50.694;7.246;2022-11-20T06:57:48;4.97;;;2.50;;
4096;SDS011;2062;50.694;7.246;2022-11-20T07:00:16;5.03;;;2.63;;
4096;SDS011;2062;50.694;7.246;2022-11-20T07:02:43;5.13;;;2.33;;
4096;SDS011;2062;50.694;7.246;2022-11-20T07:05:10;5.03;;;2.22;;
4096;SDS011;2062;50.694;7.246;2022-11-20T07:07:37;5.97;;;2.50;;
4096;SDS011;2062;50.694;7.246;2022-11-20T07:10:04;5.55;;;2.30;;
4096;SDS011;2062;50.694;7.246;2022-11-20T07:12:31;6.43;;;2.22;;
4096;SDS011;2062;50.694;7.246;2022-11-20T07:15:00;5.10;;;2.30;;
4096;SDS011;2062;50.694;7.246;2022-11-20T07:17:26;6.28;;;2.60;;
4096;SDS011;2062;50.694;7.246;2022-11-20T07:19:53;6.63;;;3.05;;
4096;SDS011;2062;50.694;7.246;2022-11-20T07:22:20;7.28;;;3.78;;
4096;SDS011;2062;50.694;7.246;2022-11-20T07:24:48;7.93;;;4.50;;
4096;SDS011;2062;50.694;7.246;2022-11-20T07:27:15;8.40;;;4.70;;
4096;SDS011;2062;50.694;7.246;2022-11-20T07:29:41;20.05;;;10.40;;
4096;SDS011;2062;50.694;7.246;2022-11-20T07:32:10;22.15;;;14.48;;
4096;SDS011;2062;50.694;7.246;2022-11-20T07:34:36;25.90;;;17.00;;
4096;SDS011;2062;50.694;7.246;2022-11-20T07:37:03;24.48;;;17.35;;
4096;SDS011;2062;50.694;7.246;2022-11-20T07:39:30;26.73;;;16.57;;
4096;SDS011;2062;50.694;7.246;2022-11-20T07:41:57;24.35;;;16.85;;
4096;SDS011;2062;50.694;7.246;2022-11-20T07:44:23;25.90;;;15.63;;
4096;SDS011;2062;50.694;7.246;2022-11-20T07:46:50;20.85;;;14.18;;
4096;SDS011;2062;50.694;7.246;2022-11-20T07:49:19;22.17;;;13.60;;
4096;SDS011;2062;50.694;7.246;2022-11-20T07:51:46;19.40;;;11.90;;
4096;SDS011;2062;50.694;7.246;2022-11-20T07:54:12;20.08;;;11.90;;
4096;SDS011;2062;50.694;7.246;2022-11-20T07:56:39;16.88;;;10.90;;
4096;SDS011;2062;50.694;7.246;2022-11-20T07:59:06;15.50;;;9.63;;
4096;SDS011;2062;50.694;7.246;2022-11-20T08:01:33;15.13;;;8.75;;
4096;SDS011;2062;50.694;7.246;2022-11-20T08:03:59;15.37;;;9.00;;
4096;SDS011;2062;50.694;7.246;2022-11-20T08:06:28;13.43;;;7.97;;
4096;SDS011;2062;50.694;7.246;2022-11-20T08:08:55;12.40;;;7.63;;
4096;SDS011;2062;50.694;7.246;2022-11-20T08:11:21;13.55;;;7.88;;
4096;SDS011;2062;50.694;7.246;2022-11-20T08:14:06;11.95;;;6.93;;
4096;SDS011;2062;50.694;7.246;2022-11-20T08:16:39;10.80;;;6.60;;
4096;SDS011;2062;50.694;7.246;2022-11-20T08:19:06;11.35;;;6.10;;
4096;SDS011;2062;50.694;7.246;2022-11-20T08:21:34;12.27;;;5.82;;
4096;SDS011;2062;50.694;7.246;2022-11-20T08:24:01;11.63;;;5.28;;
4096;SDS011;2062;50.694;7.246;2022-11-20T08:26:29;11.65;;;5.38;;
4096;SDS011;2062;50.694;7.246;2022-11-20T08:28:56;12.90;;;5.63;;
4096;SDS011;2062;50.694;7.246;2022-11-20T08:31:24;11.38;;;5.35;;
4096;SDS011;2062;50.694;7.246;2022-11-20T08:33:52;9.90;;;5.13;;
4096;SDS011;2062;50.694;7.246;2022-11-20T08:36:20;10.60;;;5.20;;
4096;SDS011;2062;50.694;7.246;2022-11-20T08:38:52;9.80;;;5.28;;
4096;SDS011;2062;50.694;7.246;2022-11-20T08:41:21;11.83;;;6.47;;
4096;SDS011;2062;50.694;7.246;2022-11-20T08:43:52;12.75;;;6.60;;
4096;SDS011;2062;50.694;7.246;2022-11-20T08:46:22;13.55;;;5.57;;
4096;SDS011;2062;50.694;7.246;2022-11-20T08:48:50;10.15;;;5.05;;
4096;SDS011;2062;50.694;7.246;2022-11-20T08:51:17;10.55;;;5.15;;
4096;SDS011;2062;50.694;7.246;2022-11-20T08:53:45;10.47;;;5.20;;
4096;SDS011;2062;50.694;7.246;2022-11-20T08:56:15;11.43;;;5.47;;
4096;SDS011;2062;50.694;7.246;2022-11-20T08:58:42;10.27;;;5.10;;
4096;SDS011;2062;50.694;7.246;2022-11-20T09:01:09;11.25;;;5.30;;
4096;SDS011;2062;50.694;7.246;2022-11-20T09:03:36;12.57;;;5.10;;
4096;SDS011;2062;50.694;7.246;2022-11-20T09:06:03;11.07;;;5.00;;
4096;SDS011;2062;50.694;7.246;2022-11-20T09:08:32;9.30;;;5.10;;
4096;SDS011;2062;50.694;7.246;2022-11-20T09:11:00;8.68;;;4.65;;
4096;SDS011;2062;50.694;7.246;2022-11-20T09:13:29;9.13;;;4.85;;
4096;SDS011;2062;50.694;7.246;2022-11-20T09:15:56;11.77;;;5.38;;
4096;SDS011;2062;50.694;7.246;2022-11-20T09:18:25;9.07;;;4.73;;
4096;SDS011;2062;50.694;7.246;2022-11-20T09:20:55;10.00;;;5.20;;
4096;SDS011;2062;50.694;7.246;2022-11-20T09:23:23;9.32;;;4.70;;
4096;SDS011;2062;50.694;7.246;2022-11-20T09:25:50;9.98;;;4.80;;
4096;SDS011;2062;50.694;7.246;2022-11-20T09:28:17;10.23;;;5.28;;
4096;SDS011;2062;50.694;7.246;2022-11-20T09:30:46;9.17;;;5.13;;
4096;SDS011;2062;50.694;7.246;2022-11-20T09:33:13;12.23;;;6.50;;
4096;SDS011;2062;50.694;7.246;2022-11-20T09:35:40;9.35;;;4.88;;
4096;SDS011;2062;50.694;7.246;2022-11-20T09:38:09;12.77;;;4.95;;
4096;SDS011;2062;50.694;7.246;2022-11-20T09:40:38;9.43;;;5.32;;
4096;SDS011;2062;50.694;7.246;2022-11-20T09:43:12;9.10;;;5.00;;
4096;SDS011;2062;50.694;7.246;2022-11-20T09:45:50;9.52;;;4.53;;
4096;SDS011;2062;50.694;7.246;2022-11-20T09:48:29;7.90;;;4.28;;
4096;SDS011;2062;50.694;7.246;2022-11-20T09:51:13;8.73;;;4.38;;
4096;SDS011;2062;50.694;7.246;2022-11-20T09:53:55;9.65;;;4.13;;
4096;SDS011;2062;50.694;7.246;2022-11-20T09:56:33;10.00;;;3.90;;
4096;SDS011;2062;50.694;7.246;2022-11-20T09:59:04;8.98;;;4.10;;
4096;SDS011;2062;50.694;7.246;2022-11-20T10:01:36;8.25;;;4.53;;
4096;SDS011;2062;50.694;7.246;2022-11-20T10:04:06;7.75;;;3.90;;
4096;SDS011;2062;50.694;7.246;2022-11-20T10:06:41;9.05;;;4.47;;
4096;SDS011;2062;50.694;7.246;2022-11-20T10:09:16;8.27;;;4.33;;
4096;SDS011;2062;50.694;7.246;2022-11-20T10:11:49;9.65;;;4.20;;
4096;SDS011;2062;50.694;7.246;2022-11-20T10:14:26;8.00;;;3.80;;
4096;SDS011;2062;50.694;7.246;2022-11-20T10:17:03;8.60;;;3.63;;
4096;SDS011;2062;50.694;7.246;2022-11-20T10:19:45;15.15;;;5.80;;
4096;SDS011;2062;50.694;7.246;2022-11-20T10:22:25;7.63;;;4.20;;
4096;SDS011;2062;50.694;7.246;2022-11-20T10:25:02;7.18;;;3.55;;
4096;SDS011;2062;50.694;7.246;2022-11-20T10:27:38;8.00;;;3.95;;
4096;SDS011;2062;50.694;7.246;2022-11-20T10:30:15;7.65;;;4.00;;
4096;SDS011;2062;50.694;7.246;2022-11-20T10:32:45;8.90;;;3.90;;
4096;SDS011;2062;50.694;7.246;2022-11-20T10:35:16;7.17;;;3.93;;
4096;SDS011;2062;50.694;7.246;2022-11-20T10:37:48;10.23;;;4.07;;
4096;SDS011;2062;50.694;7.246;2022-11-20T10:40:19;11.55;;;3.60;;
4096;SDS011;2062;50.694;7.246;2022-11-20T10:42:52;10.68;;;3.80;;
4096;SDS011;2062;50.694;7.246;2022-11-20T10:45:28;7.00;;;3.53;;
4096;SDS011;2062;50.694;7.246;2022-11-20T10:48:08;9.13;;;3.13;;
4096;SDS011;2062;50.694;7.246;2022-11-20T10:50:40;9.90;;;3.60;;
4096;SDS011;2062;50.694;7.246;2022-11-20T10:53:19;10.75;;;3.67;;
4096;SDS011;2062;50.694;7.246;2022-11-20T10:55:58;8.85;;;3.40;;
4096;SDS011;2062;50.694;7.246;2022-11-20T10:58:34;11.20;;;3.70;;
4096;SDS011;2062;50.694;7.246;2022-11-20T11:01:13;6.40;;;3.20;;
4096;SDS011;2062;50.694;7.246;2022-11-20T11:03:44;7.47;;;3.45;;
4096;SDS011;2062;50.694;7.246;2022-11-20T11:06:13;8.32;;;3.72;;
4096;SDS011;2062;50.694;7.246;2022-11-20T11:08:45;16.98;;;3.72;;
4096;SDS011;2062;50.694;7.246;2022-11-20T11:11:18;10.93;;;3.90;;
4096;SDS011;2062;50.694;7.246;2022-11-20T11:13:48;9.53;;;3.60;;
4096;SDS011;2062;50.694;7.246;2022-11-20T11:16:18;7.40;;;3.58;;
4096;SDS011;2062;50.694;7.246;2022-11-20T11:18:48;8.57;;;3.33;;
4096;SDS011;2062;50.694;7.246;2022-11-20T11:21:20;6.72;;;3.60;;
4096;SDS011;2062;50.694;7.246;2022-11-20T11:23:56;7.03;;;3.67;;
4096;SDS011;2062;50.694;7.246;2022-11-20T11:26:25;8.53;;;3.70;;
4096;SDS011;2062;50.694;7.246;2022-11-20T11:28:52;9.57;;;3.50;;
4096;SDS011;2062;50.694;7.246;2022-11-20T11:31:24;9.38;;;3.50;;
4096;SDS011;2062;50.694;7.246;2022-11-20T11:34:02;11.48;;;4.03;;
4096;SDS011;2062;50.694;7.246;2022-11-20T11:36:30;10.13;;;3.85;;
4096;SDS011;2062;50.694;7.246;2022-11-20T11:38:59;8.00;;;4.07;;
4096;SDS011;2062;50.694;7.246;2022-11-20T11:41:29;8.52;;;4.07;;
4096;SDS011;2062;50.694;7.246;2022-11-20T11:44:00;9.15;;;3.65;;
4096;SDS011;2062;50.694;7.246;2022-11-20T11:46:56;11.80;;;3.85;;
4096;SDS011;2062;50.694;7.246;2022-11-20T11:49:26;8.27;;;3.90;;
4096;SDS011;2062;50.694;7.246;2022-11-20T11:52:03;7.43;;;3.60;;
4096;SDS011;2062;50.694;7.246;2022-11-20T11:54:37;8.93;;;3.33;;
4096;SDS011;2062;50.694;7.246;2022-11-20T11:57:11;6.85;;;3.17;;
4096;SDS011;2062;50.694;7.246;2022-11-20T11:59:45;6.97;;;3.20;;
4096;SDS011;2062;50.694;7.246;2022-11-20T12:02:25;8.05;;;3.00;;
4096;SDS011;2062;50.694;7.246;2022-11-20T12:05:02;10.57;;;3.67;;
4096;SDS011;2062;50.694;7.246;2022-11-20T12:07:41;6.55;;;3.20;;
4096;SDS011;2062;50.694;7.246;2022-11-20T12:10:14;12.52;;;3.40;;
4096;SDS011;2062;50.694;7.246;2022-11-20T12:12:46;9.43;;;3.50;;
4096;SDS011;2062;50.694;7.246;2022-11-20T12:15:20;6.82;;;3.30;;
4096;SDS011;2062;50.694;7.246;2022-11-20T12:17:52;6.37;;;3.20;;
4096;SDS011;2062;50.694;7.246;2022-11-20T12:20:21;6.90;;;2.90;;
4096;SDS011;2062;50.694;7.246;2022-11-20T12:22:53;8.52;;;3.20;;
4096;SDS011;2062;50.694;7.246;2022-11-20T12:25:26;6.30;;;3.20;;
4096;SDS011;2062;50.694;7.246;2022-11-20T12:28:17;6.50;;;2.95;;
4096;SDS011;2062;50.694;7.246;2022-11-20T12:31:14;8.60;;;2.90;;
4096;SDS011;2062;50.694;7.246;2022-11-20T12:36:49;6.40;;;3.13;;
4096;SDS011;2062;50.694;7.246;2022-11-20T12:39:26;7.90;;;3.47;;
4096;SDS011;2062;50.694;7.246;2022-11-20T12:45:13;5.90;;;2.80;;
4096;SDS011;2062;50.694;7.246;2022-11-20T12:47:56;6.47;;;2.70;;
4096;SDS011;2062;50.694;7.246;2022-11-20T12:50:41;7.28;;;3.10;;
4096;SDS011;2062;50.694;7.246;2022-11-20T12:53:22;7.82;;;2.90;;
4096;SDS011;2062;50.694;7.246;2022-11-20T12:55:56;7.40;;;3.10;;
4096;SDS011;2062;50.694;7.246;2022-11-20T12:58:31;6.40;;;3.20;;
4096;SDS011;2062;50.694;7.246;2022-11-20T13:01:12;6.43;;;2.80;;
4096;SDS011;2062;50.694;7.246;2022-11-20T13:04:07;6.35;;;3.00;;
4096;SDS011;2062;50.694;7.246;2022-11-20T13:06:42;9.75;;;2.75;;
4096;SDS011;2062;50.694;7.246;2022-11-20T13:09:12;6.20;;;2.70;;
4096;SDS011;2062;50.694;7.246;2022-11-20T13:11:41;7.07;;;3.13;;
4096;SDS011;2062;50.694;7.246;2022-11-20T13:14:19;7.25;;;3.00;;
4096;SDS011;2062;50.694;7.246;2022-11-20T13:16:58;6.35;;;2.85;;
4096;SDS011;2062;50.694;7.246;2022-11-20T13:19:29;6.90;;;2.95;;
4096;SDS011;2062;50.694;7.246;2022-11-20T13:21:56;5.60;;;2.90;;
4096;SDS011;2062;50.694;7.246;2022-11-20T13:24:25;7.20;;;3.10;;
4096;SDS011;2062;50.694;7.246;2022-11-20T13:27:17;5.63;;;2.83;;
4096;SDS011;2062;50.694;7.246;2022-11-20T13:29:46;5.82;;;2.90;;
4096;SDS011;2062;50.694;7.246;2022-11-20T13:32:25;7.25;;;3.13;;
4096;SDS011;2062;50.694;7.246;2022-11-20T13:34:57;6.65;;;3.00;;
4096;SDS011;2062;50.694;7.246;2022-11-20T13:37:29;7.87;;;3.10;;
4096;SDS011;2062;50.694;7.246;2022-11-20T13:40:19;5.47;;;2.58;;
4096;SDS011;2062;50.694;7.246;2022-11-20T13:42:54;7.15;;;3.00;;
4096;SDS011;2062;50.694;7.246;2022-11-20T13:45:28;6.65;;;2.80;;
4096;SDS011;2062;50.694;7.246;2022-11-20T13:47:57;8.32;;;3.03;;
4096;SDS011;2062;50.694;7.246;2022-11-20T13:50:38;7.23;;;2.90;;
4096;SDS011;2062;50.694;7.246;2022-11-20T13:53:14;7.03;;;2.70;;
4096;SDS011;2062;50.694;7.246;2022-11-20T13:56:00;6.28;;;3.00;;
4096;SDS011;2062;50.694;7.246;2022-11-20T13:58:36;6.28;;;2.90;;
4096;SDS011;2062;50.694;7.246;2022-11-20T14:01:14;7.38;;;3.20;;
4096;SDS011;2062;50.694;7.246;2022-11-20T14:03:46;6.73;;;3.20;;
4096;SDS011;2062;50.694;7.246;2022-11-20T14:06:14;7.10;;;2.80;;
4096;SDS011;2062;50.694;7.246;2022-11-20T14:08:52;9.50;;;2.85;;
4096;SDS011;2062;50.694;7.246;2022-11-20T14:11:21;6.53;;;2.72;;
4096;SDS011;2062;50.694;7.246;2022-11-20T14:13:52;5.35;;;2.53;;
4096;SDS011;2062;50.694;7.246;2022-11-20T14:16:21;6.33;;;2.73;;
4096;SDS011;2062;50.694;7.246;2022-11-20T14:18:49;6.88;;;2.63;;
4096;SDS011;2062;50.694;7.246;2022-11-20T14:21:23;8.65;;;2.40;;
4096;SDS011;2062;50.694;7.246;2022-11-20T14:23:52;5.90;;;2.50;;
4096;SDS011;2062;50.694;7.246;2022-11-20T14:26:21;5.05;;;2.50;;
4096;SDS011;2062;50.694;7.246;2022-11-20T14:28:49;5.60;;;2.37;;
4096;SDS011;2062;50.694;7.246;2022-11-20T14:31:21;5.50;;;2.80;;
4096;SDS011;2062;50.694;7.246;2022-11-20T14:33:51;5.78;;;2.60;;
4096;SDS011;2062;50.694;7.246;2022-11-20T14:36:19;7.20;;;2.65;;
4096;SDS011;2062;50.694;7.246;2022-11-20T14:38:48;8.05;;;2.35;;
4096;SDS011;2062;50.694;7.246;2022-11-20T14:41:16;5.33;;;2.30;;
4096;SDS011;2062;50.694;7.246;2022-11-20T14:43:47;5.57;;;2.50;;
4096;SDS011;2062;50.694;7.246;2022-11-20T14:46:20;5.78;;;2.33;;
4096;SDS011;2062;50.694;7.246;2022-11-20T14:48:49;6.88;;;2.42;;
4096;SDS011;2062;50.694;7.246;2022-11-20T14:51:29;6.72;;;2.30;;
4096;SDS011;2062;50.694;7.246;2022-11-20T14:54:07;5.30;;;2.40;;
4096;SDS011;2062;50.694;7.246;2022-11-20T14:56:36;6.97;;;2.42;;
4096;SDS011;2062;50.694;7.246;2022-11-20T14:59:04;5.70;;;2.42;;
4096;SDS011;2062;50.694;7.246;2022-11-20T15:01:32;5.15;;;2.00;;
4096;SDS011;2062;50.694;7.246;2022-11-20T15:04:00;9.32;;;2.33;;
4096;SDS011;2062;50.694;7.246;2022-11-20T15:06:28;4.93;;;2.30;;
4096;SDS011;2062;50.694;7.246;2022-11-20T15:08:56;6.35;;;2.20;;
4096;SDS011;2062;50.694;7.246;2022-11-20T15:11:26;7.75;;;2.33;;
4096;SDS011;2062;50.694;7.246;2022-11-20T15:13:56;5.13;;;2.38;;
4096;SDS011;2062;50.694;7.246;2022-11-20T15:16:26;5.15;;;2.20;;
4096;SDS011;2062;50.694;7.246;2022-11-20T15:18:53;7.07;;;2.40;;
4096;SDS011;2062;50.694;7.246;2022-11-20T15:21:22;5.30;;;1.92;;
4096;SDS011;2062;50.694;7.246;2022-11-20T15:23:50;5.88;;;2.42;;
4096;SDS011;2062;50.694;7.246;2022-11-20T15:26:20;4.32;;;1.88;;
4096;SDS011;2062;50.694;7.246;2022-11-20T15:28:50;4.97;;;2.58;;
4096;SDS011;2062;50.694;7.246;2022-11-20T15:31:18;9.57;;;2.70;;
4096;SDS011;2062;50.694;7.246;2022-11-20T15:33:48;7.28;;;2.67;;
4096;SDS011;2062;50.694;7.246;2022-11-20T15:36:15;7.20;;;3.00;;